Madison, AL

4:21 PM CDT on September 18, 2014 (GMT -0500)
APRSWXNET Harvest AL US | Change Station
CLOSE
Current Station
Personal Weather Station
Location: Capshaw, AL
Elevation: 854 ft
Nearby Weather Stations

Elev 854 ft 34.80 °N, 86.76 °W | Updated 48 minutes ago

Partly Cloudy
Partly Cloudy
80.0 °F
Feels Like 83 °F
N
0.0
Wind Variable Wind from North
Gusts 3.0 mph

Today
High -- | Low -- °F
--% Chance of Precip.
Yesterday
High -- | Low -- °F
Precip. -- in
6:32 AM 6:49 PM
Waning Crescent, 24% visible
Pressure 29.96 in
Visibility 7.0 miles
Clouds Few 4400 ft
Heat Index 83 °F
Dew Point 68.0 °F
Humidity 67%
Rainfall 0.05 in
Snow Depth Not available.
UV 6 out of 12
Pollen 7.90 out of 12
Air Quality Not available.
Flu Activity Not available.
METAR KHUA 181955Z 00000KT 7SM FEW044 28/16 A2996 RMK LAST

More Conditions Fewer Conditions

Pressure 29.96 in
Visibility 7.0 miles
Clouds Few 4400 ft
Heat Index 83 °F
Dew Point 68.0 °F
Humidity 67%
Rainfall 0.05 in
Snow Depth Not available.
UV 6 out of 12
Pollen 7.90 out of 12
Air Quality Not available.
Flu Activity Not available.
METAR KHUA 181955Z 00000KT 7SM FEW044 28/16 A2996 RMK LAST

More Conditions Fewer Conditions

10-Day Weather Forecast

Almanac

Astronomy

Sep. 18, 2014 Rise Set
Actual Time 6:32 AM CDT 6:49 PM CDT
Civil Twilight 6:06 AM CDT 7:14 PM CDT
Nautical Twilight 5:37 AM CDT 7:44 PM CDT
Astronomical Twilight 5:07 AM CDT 8:14 PM CDT
Moon 1:33 AM CDT 3:31 PM CDT
Length of Visible Light 13h 07m
Length of Day
12h 17m
Tomorrow will be 2m 9s shorter.
Waning Crescent, 24% of the Moon is Illuminated
Today
Waning Crescent
Sep 24
New
Oct 1
First Quarter
Oct 8
Full
Oct 15
Last Quarter

Today's Extremes

State Highs State Lows

Community

WunderPhotos

Upload Photos

1,754,452 photos uploaded!

WunderBlogs® & News

Nearby

Snow Depth

Station Depth Elevation
No new snow has been reported.

Earthquake Activity

City Distance Mag. Time & Date
No recent earthquake activity has been reported nearby.
Minimum magnitude displayed is 2.5.

Coastal Water Temperatures

Place Temperature
No Stations Reporting

Nearby Weather Stations